Time;durP1;ratioP1;P1;durP2;ratioP2;P2;SDS_P1;SDS_P2;PMS_P1;PMS_P2;Temp;Humidity;BMP_temperature;BMP_pressure;BME280_temperature;BME280_humidity;BME280_pressure;Samples;Min_cycle;Max_cycle;Signal;HPM_P1;HPM_P2
2023/11/02 00:02:02;;;;;;;;;1.00;1.00;;;;;;;;5080812;28;45317;-76
2023/11/02 00:04:28;;;;;;;;;1.00;1.00;;;;;;;;5081095;28;45557;-77
2023/11/02 00:06:53;;;;;;;;;2.00;1.00;;;;;;;;5081282;28;45262;-77
2023/11/02 00:09:37;;;;;;;;;2.67;1.67;;;;;;;;5081141;28;45315;-76
2023/11/02 00:12:12;;;;;;;;;3.00;1.00;;;;;;;;5081523;28;45413;-76
2023/11/02 00:14:43;;;;;;;;;2.00;2.00;;;;;;;;5081002;28;45379;-77
2023/11/02 00:17:27;;;;;;;;;2.67;2.67;;;;;;;;5080120;28;45464;-76
2023/11/02 00:19:52;;;;;;;;;3.00;2.33;;;;;;;;5083292;28;46534;-77
2023/11/02 00:22:18;;;;;;;;;2.00;2.00;;;;;;;;5083540;28;45251;-77
2023/11/02 00:24:44;;;;;;;;;2.00;1.67;;;;;;;;5082742;28;45413;-76
2023/11/02 00:27:11;;;;;;;;;3.50;0.25;;;;;;;;5082425;28;45360;-77
2023/11/02 00:29:38;;;;;;;;;1.75;1.00;;;;;;;;5094503;27;46077;-77
2023/11/02 00:32:04;;;;;;;;;1.00;1.00;;;;;;;;5102042;27;45437;-76
2023/11/02 00:34:29;;;;;;;;;1.67;1.33;;;;;;;;5101388;27;45338;-77
2023/11/02 00:37:00;;;;;;;;;3.67;3.00;;;;;;;;5103825;27;45215;-75
2023/11/02 00:39:26;;;;;;;;;2.00;1.00;;;;;;;;5104897;27;45393;-76
2023/11/02 00:41:51;;;;;;;;;1.67;1.33;;;;;;;;5104609;27;45353;-77
2023/11/02 00:44:17;;;;;;;;;3.00;1.00;;;;;;;;5106391;27;45437;-78
2023/11/02 00:46:43;;;;;;;;;1.00;1.00;;;;;;;;5103957;27;45268;-77
2023/11/02 00:49:13;;;;;;;;;1.00;1.00;;;;;;;;5107058;27;45217;-77
2023/11/02 00:51:39;;;;;;;;;2.00;2.00;;;;;;;;5105962;27;45694;-77
2023/11/02 00:54:06;;;;;;;;;1.00;1.00;;;;;;;;5108365;27;45375;-77
2023/11/02 00:56:33;;;;;;;;;1.00;1.00;;;;;;;;5105553;27;45586;-77
2023/11/02 00:58:59;;;;;;;;;2.67;2.00;;;;;;;;5108303;27;46227;-76
2023/11/02 01:01:26;;;;;;;;;1.67;1.67;;;;;;;;5106952;27;45262;-77
2023/11/02 01:04:04;;;;;;;;;1.33;1.33;;;;;;;;5107113;27;45441;-76
2023/11/02 01:06:30;;;;;;;;;2.67;1.00;;;;;;;;5106755;27;45413;-77
2023/11/02 01:08:58;;;;;;;;;2.00;1.00;;;;;;;;5106382;27;46791;-77
2023/11/02 01:11:28;;;;;;;;;2.00;1.00;;;;;;;;5107060;27;45194;-76
2023/11/02 01:13:56;;;;;;;;;1.00;0.67;;;;;;;;5108506;27;44710;-79
2023/11/02 01:16:21;;;;;;;;;0.00;0.00;;;;;;;;5107179;27;45306;-77
2023/11/02 01:18:46;;;;;;;;;1.00;1.00;;;;;;;;5110832;27;45310;-77
2023/11/02 01:21:13;;;;;;;;;1.67;1.67;;;;;;;;5108375;27;45384;-77
2023/11/02 01:23:38;;;;;;;;;1.75;1.00;;;;;;;;5106888;27;45278;-78
2023/11/02 01:26:04;;;;;;;;;1.00;1.00;;;;;;;;5106920;27;45474;-77
2023/11/02 01:28:51;;;;;;;;;2.67;1.67;;;;;;;;5105265;27;46147;-78
2023/11/02 01:31:17;;;;;;;;;0.00;0.00;;;;;;;;5087523;28;45305;-78
2023/11/02 01:33:53;;;;;;;;;1.00;1.00;;;;;;;;5085165;27;45426;-77
2023/11/02 01:36:26;;;;;;;;;1.00;1.00;;;;;;;;5085711;28;45260;-78
2023/11/02 01:38:54;;;;;;;;;1.00;1.00;;;;;;;;5086821;28;45253;-79
2023/11/02 01:41:28;;;;;;;;;1.00;1.00;;;;;;;;5085815;28;45322;-78
2023/11/02 01:43:59;;;;;;;;;1.00;1.00;;;;;;;;5087008;28;45386;-79
2023/11/02 01:46:28;;;;;;;;;1.33;0.00;;;;;;;;5084875;28;45248;-78
2023/11/02 01:49:06;;;;;;;;;0.00;0.00;;;;;;;;5088473;28;46404;-77
2023/11/02 01:51:33;;;;;;;;;1.33;1.00;;;;;;;;5084414;28;45481;-78
2023/11/02 01:54:06;;;;;;;;;0.00;0.00;;;;;;;;5084587;28;45277;-77
2023/11/02 01:56:51;;;;;;;;;1.00;1.00;;;;;;;;5087633;28;45330;-77
2023/11/02 01:59:22;;;;;;;;;0.00;0.00;;;;;;;;5092269;28;45389;-78
2023/11/02 02:02:06;;;;;;;;;1.00;1.00;;;;;;;;5089254;28;45271;-77
2023/11/02 02:04:46;;;;;;;;;2.00;0.67;;;;;;;;5089854;28;45406;-79
2023/11/02 02:07:27;;;;;;;;;2.00;0.67;;;;;;;;5087633;28;45302;-78
2023/11/02 02:10:05;;;;;;;;;1.00;1.00;;;;;;;;5087477;28;46489;-77
2023/11/02 02:12:36;;;;;;;;;0.00;0.00;;;;;;;;5088360;28;45319;-78
2023/11/02 02:15:04;;;;;;;;;0.00;0.00;;;;;;;;5086435;28;45145;-78
2023/11/02 02:17:32;;;;;;;;;1.00;1.00;;;;;;;;5082177;28;45713;-79
2023/11/02 02:20:01;;;;;;;;;2.33;1.00;;;;;;;;5083846;28;45284;-78
2023/11/02 02:22:32;;;;;;;;;1.00;1.00;;;;;;;;5083768;28;45727;-79
2023/11/02 02:25:06;;;;;;;;;1.00;1.00;;;;;;;;5084884;28;45287;-78
2023/11/02 02:27:47;;;;;;;;;1.00;1.00;;;;;;;;5085969;28;45391;-79
2023/11/02 02:30:31;;;;;;;;;1.25;0.00;;;;;;;;5100978;27;46430;-78
2023/11/02 02:32:57;;;;;;;;;1.00;1.00;;;;;;;;5104949;27;45272;-79
2023/11/02 02:35:27;;;;;;;;;1.00;1.00;;;;;;;;5104500;27;45277;-78
2023/11/02 02:37:58;;;;;;;;;1.00;1.00;;;;;;;;5103513;27;45393;-78
2023/11/02 02:40:28;;;;;;;;;0.00;0.00;;;;;;;;5103257;27;45946;-78
2023/11/02 02:42:55;;;;;;;;;2.00;1.00;;;;;;;;5105991;27;45267;-79
2023/11/02 02:45:21;;;;;;;;;1.00;1.00;;;;;;;;5103811;27;45325;-79
2023/11/02 02:47:49;;;;;;;;;2.00;0.75;;;;;;;;5106604;27;45151;-77
2023/11/02 02:50:15;;;;;;;;;0.00;0.00;;;;;;;;5107874;27;46328;-79
2023/11/02 02:52:42;;;;;;;;;1.33;1.33;;;;;;;;5103600;27;45298;-79
2023/11/02 02:55:09;;;;;;;;;0.00;0.00;;;;;;;;5105458;27;45305;-79
2023/11/02 02:57:37;;;;;;;;;0.00;0.00;;;;;;;;5104163;27;45374;-78
2023/11/02 03:00:04;;;;;;;;;0.50;0.50;;;;;;;;5104914;27;45257;-79
2023/11/02 03:02:32;;;;;;;;;0.00;0.00;;;;;;;;5105805;27;45325;-78
2023/11/02 03:04:58;;;;;;;;;1.00;0.00;;;;;;;;5108565;27;45334;-78
2023/11/02 03:07:25;;;;;;;;;0.25;0.25;;;;;;;;5105444;27;45492;-78
2023/11/02 03:09:54;;;;;;;;;1.00;1.00;;;;;;;;5107337;27;47958;-78
2023/11/02 03:12:25;;;;;;;;;0.25;0.25;;;;;;;;5108494;27;45247;-79
2023/11/02 03:14:51;;;;;;;;;1.00;1.00;;;;;;;;5107092;27;45280;-79
2023/11/02 03:17:24;;;;;;;;;1.00;1.00;;;;;;;;5105112;27;46952;-80
2023/11/02 03:19:50;;;;;;;;;0.25;0.25;;;;;;;;5106176;27;46213;-79
2023/11/02 03:22:20;;;;;;;;;0.33;0.33;;;;;;;;5105909;27;45275;-79
2023/11/02 03:24:49;;;;;;;;;0.00;0.00;;;;;;;;5106988;27;45190;-78
2023/11/02 03:27:19;;;;;;;;;0.00;0.00;;;;;;;;5103389;27;45282;-81
2023/11/02 03:29:51;;;;;;;;;1.00;1.00;;;;;;;;5090832;27;45461;-78
2023/11/02 03:32:25;;;;;;;;;0.00;0.00;;;;;;;;5082881;28;45279;-80
2023/11/02 03:34:53;;;;;;;;;0.00;0.00;;;;;;;;5085341;28;45288;-79
2023/11/02 03:37:37;;;;;;;;;0.25;0.00;;;;;;;;5082940;28;45492;-80
2023/11/02 03:40:08;;;;;;;;;0.00;0.00;;;;;;;;5084345;28;45271;-78
2023/11/02 03:42:36;;;;;;;;;0.33;0.00;;;;;;;;5082156;28;45276;-79
2023/11/02 03:45:01;;;;;;;;;0.00;0.00;;;;;;;;5086339;28;45220;-78
2023/11/02 03:47:46;;;;;;;;;0.75;0.75;;;;;;;;5091500;28;45191;-79
2023/11/02 03:50:18;;;;;;;;;0.00;0.00;;;;;;;;5087957;28;45246;-79
2023/11/02 03:53:02;;;;;;;;;1.00;1.00;;;;;;;;5087744;28;45220;-78
2023/11/02 03:55:51;;;;;;;;;0.00;0.00;;;;;;;;5087959;28;45401;-78
2023/11/02 03:58:16;;;;;;;;;0.33;0.33;;;;;;;;5083868;28;46115;-79
2023/11/02 04:00:47;;;;;;;;;0.40;0.40;;;;;;;;5085638;28;45176;-80
2023/11/02 04:03:14;;;;;;;;;0.67;0.00;;;;;;;;5085280;28;45322;-79
2023/11/02 04:05:42;;;;;;;;;0.33;0.00;;;;;;;;5081247;28;45287;-79
2023/11/02 04:08:09;;;;;;;;;1.33;0.00;;;;;;;;5081028;28;45457;-79
2023/11/02 04:10:35;;;;;;;;;0.33;0.33;;;;;;;;5083837;28;45252;-79
2023/11/02 04:13:12;;;;;;;;;0.33;0.33;;;;;;;;5086280;28;45337;-80
2023/11/02 04:15:38;;;;;;;;;0.00;0.00;;;;;;;;5091286;28;45423;-80
2023/11/02 04:18:03;;;;;;;;;1.00;0.33;;;;;;;;5090658;28;45286;-80
2023/11/02 04:20:29;;;;;;;;;0.33;0.00;;;;;;;;5086835;28;46597;-78
2023/11/02 04:22:54;;;;;;;;;0.00;0.00;;;;;;;;5087667;28;45182;-78
2023/11/02 04:25:19;;;;;;;;;0.33;0.33;;;;;;;;5088089;28;45246;-80
2023/11/02 04:27:45;;;;;;;;;2.33;0.33;;;;;;;;5088578;28;46267;-79
2023/11/02 04:30:10;;;;;;;;;0.25;0.25;;;;;;;;5103300;27;45536;-79
2023/11/02 04:32:35;;;;;;;;;1.00;1.00;;;;;;;;5110435;27;45196;-79
2023/11/02 04:35:01;;;;;;;;;1.00;1.00;;;;;;;;5106942;27;45136;-78
2023/11/02 04:37:26;;;;;;;;;2.67;0.33;;;;;;;;5110375;27;45368;-78
2023/11/02 04:39:51;;;;;;;;;0.25;0.25;;;;;;;;5109043;27;45576;-77
2023/11/02 04:42:21;;;;;;;;;2.00;1.00;;;;;;;;5108700;27;45386;-76
2023/11/02 04:44:46;;;;;;;;;0.25;0.00;;;;;;;;5105770;27;45400;-77
2023/11/02 04:47:11;;;;;;;;;2.33;1.33;;;;;;;;5108648;27;45531;-78
2023/11/02 04:49:37;;;;;;;;;0.00;0.00;;;;;;;;5107024;27;45294;-76
2023/11/02 04:52:04;;;;;;;;;0.50;0.25;;;;;;;;5110402;27;45338;-77
2023/11/02 04:54:29;;;;;;;;;0.50;0.50;;;;;;;;5111175;27;45242;-79
2023/11/02 04:56:55;;;;;;;;;0.33;0.33;;;;;;;;5110745;27;45223;-79
2023/11/02 04:59:20;;;;;;;;;2.25;0.50;;;;;;;;5111090;27;45224;-77
2023/11/02 05:01:46;;;;;;;;;0.00;0.00;;;;;;;;5110026;27;45179;-78
2023/11/02 05:04:11;;;;;;;;;0.00;0.00;;;;;;;;5111695;27;45277;-77
2023/11/02 05:06:38;;;;;;;;;1.50;0.25;;;;;;;;5109820;27;45211;-77
2023/11/02 05:09:03;;;;;;;;;0.67;0.67;;;;;;;;5111465;27;45222;-78
2023/11/02 05:11:28;;;;;;;;;0.00;0.00;;;;;;;;5111922;27;45283;-77
2023/11/02 05:13:54;;;;;;;;;0.25;0.25;;;;;;;;5111913;27;45400;-78
2023/11/02 05:16:19;;;;;;;;;1.67;1.33;;;;;;;;5111697;27;45403;-76
2023/11/02 05:18:44;;;;;;;;;0.00;0.00;;;;;;;;5112289;27;46269;-78
2023/11/02 05:21:09;;;;;;;;;2.00;1.00;;;;;;;;5108685;27;45326;-77
2023/11/02 05:23:35;;;;;;;;;1.00;0.33;;;;;;;;5110428;27;45349;-78
2023/11/02 05:26:01;;;;;;;;;1.00;1.00;;;;;;;;5108768;27;45503;-79
2023/11/02 05:28:26;;;;;;;;;1.50;0.25;;;;;;;;5108137;27;46390;-79
2023/11/02 05:30:52;;;;;;;;;1.25;0.25;;;;;;;;5092412;28;45314;-77
2023/11/02 05:33:17;;;;;;;;;4.00;1.00;;;;;;;;5091124;28;45441;-78
2023/11/02 05:35:42;;;;;;;;;1.33;1.33;;;;;;;;5087551;28;45260;-78
2023/11/02 05:38:07;;;;;;;;;2.00;0.33;;;;;;;;5086425;28;46148;-76
2023/11/02 05:40:33;;;;;;;;;2.33;1.67;;;;;;;;5089443;28;45285;-77
2023/11/02 05:42:58;;;;;;;;;4.33;1.67;;;;;;;;5090396;28;45440;-78
2023/11/02 05:45:23;;;;;;;;;0.25;0.25;;;;;;;;5089160;28;45287;-78
2023/11/02 05:47:48;;;;;;;;;2.00;2.00;;;;;;;;5090371;28;45352;-79
2023/11/02 05:50:13;;;;;;;;;1.33;1.00;;;;;;;;5089455;28;45141;-77
2023/11/02 05:52:39;;;;;;;;;4.67;3.00;;;;;;;;5087689;28;45457;-78
2023/11/02 05:55:05;;;;;;;;;1.00;1.00;;;;;;;;5083837;28;47117;-78
2023/11/02 05:57:30;;;;;;;;;2.67;2.33;;;;;;;;5086646;28;45933;-77
2023/11/02 05:59:57;;;;;;;;;1.33;1.33;;;;;;;;5081861;28;45357;-78
2023/11/02 06:02:22;;;;;;;;;5.00;3.00;;;;;;;;5073160;28;45363;-79
2023/11/02 06:04:47;;;;;;;;;0.67;0.67;;;;;;;;5070302;28;45427;-79
2023/11/02 06:07:12;;;;;;;;;1.67;1.00;;;;;;;;5083670;28;45458;-79
2023/11/02 06:09:38;;;;;;;;;1.33;0.33;;;;;;;;5081778;28;45266;-77
2023/11/02 06:12:03;;;;;;;;;1.50;1.25;;;;;;;;5081927;28;45322;-78
2023/11/02 06:14:28;;;;;;;;;2.33;0.67;;;;;;;;5082250;28;45308;-77
2023/11/02 06:16:53;;;;;;;;;0.50;0.50;;;;;;;;5084211;28;45401;-75
2023/11/02 06:19:19;;;;;;;;;1.25;1.00;;;;;;;;5087106;28;45262;-75
2023/11/02 06:21:44;;;;;;;;;3.33;1.00;;;;;;;;5089610;28;45369;-76
2023/11/02 06:24:09;;;;;;;;;2.00;1.33;;;;;;;;5090746;28;45312;-77
2023/11/02 06:26:34;;;;;;;;;2.33;1.00;;;;;;;;5090012;28;45324;-77
2023/11/02 06:28:59;;;;;;;;;1.67;1.67;;;;;;;;5096753;27;45310;-77
2023/11/02 06:31:25;;;;;;;;;3.67;3.00;;;;;;;;5109117;27;45342;-76
2023/11/02 06:33:50;;;;;;;;;2.33;2.33;;;;;;;;5108314;27;45321;-76
2023/11/02 06:36:15;;;;;;;;;4.67;2.33;;;;;;;;5095483;27;46342;-76
2023/11/02 06:38:40;;;;;;;;;1.00;1.00;;;;;;;;5086809;28;45376;-76
2023/11/02 06:41:05;;;;;;;;;0.67;0.00;;;;;;;;5095056;27;45381;-76
2023/11/02 06:43:31;;;;;;;;;2.25;0.25;;;;;;;;5107021;27;45315;-76
2023/11/02 06:45:56;;;;;;;;;2.33;2.33;;;;;;;;5108327;27;45434;-76
2023/11/02 06:48:22;;;;;;;;;1.00;1.00;;;;;;;;5106938;27;45314;-77
2023/11/02 06:50:49;;;;;;;;;4.67;2.00;;;;;;;;5093217;27;45357;-77
2023/11/02 06:53:15;;;;;;;;;2.33;2.33;;;;;;;;5107936;27;45221;-76
2023/11/02 06:55:40;;;;;;;;;4.33;1.33;;;;;;;;5083355;27;45929;-76
2023/11/02 06:58:05;;;;;;;;;0.33;0.33;;;;;;;;5063535;28;45233;-75
2023/11/02 07:00:30;;;;;;;;;0.00;0.00;;;;;;;;5064546;27;45239;-76
2023/11/02 07:02:56;;;;;;;;;0.33;0.33;;;;;;;;5082887;27;45254;-76
2023/11/02 07:05:22;;;;;;;;;2.33;1.33;;;;;;;;5080730;28;45551;-78
2023/11/02 07:07:49;;;;;;;;;0.00;0.00;;;;;;;;5079834;27;45250;-76
2023/11/02 07:10:14;;;;;;;;;3.00;2.67;;;;;;;;5081563;28;45393;-76
2023/11/02 07:12:40;;;;;;;;;0.00;0.00;;;;;;;;5079978;28;45538;-77
2023/11/02 07:15:05;;;;;;;;;3.00;3.00;;;;;;;;5071997;28;46815;-80
2023/11/02 07:17:30;;;;;;;;;3.00;2.00;;;;;;;;5079735;28;45692;-81
2023/11/02 07:19:55;;;;;;;;;1.33;1.33;;;;;;;;5080748;28;45298;-80
2023/11/02 07:22:20;;;;;;;;;1.00;1.00;;;;;;;;5081191;28;45370;-80
2023/11/02 07:24:46;;;;;;;;;0.67;0.67;;;;;;;;5081242;28;45300;-81
2023/11/02 07:27:11;;;;;;;;;1.67;1.67;;;;;;;;5071620;28;45497;-80
2023/11/02 07:29:36;;;;;;;;;1.50;1.50;;;;;;;;5068747;27;46775;-81
2023/11/02 07:32:03;;;;;;;;;4.67;4.33;;;;;;;;5069747;28;45625;-82
2023/11/02 07:34:28;;;;;;;;;2.33;2.00;;;;;;;;5072990;28;45465;-81
2023/11/02 07:36:54;;;;;;;;;3.33;3.00;;;;;;;;5069220;28;45271;-80
2023/11/02 07:39:19;;;;;;;;;3.75;1.25;;;;;;;;5064997;28;45327;-81
2023/11/02 07:41:44;;;;;;;;;2.50;2.25;;;;;;;;5063197;28;45225;-80
2023/11/02 07:44:09;;;;;;;;;3.67;1.33;;;;;;;;5063406;28;45641;-80
2023/11/02 07:46:35;;;;;;;;;4.75;3.25;;;;;;;;5061362;28;45292;-80
2023/11/02 07:49:00;;;;;;;;;2.50;2.50;;;;;;;;5061242;28;45197;-81
2023/11/02 07:51:25;;;;;;;;;2.00;0.00;;;;;;;;5065561;28;45441;-80
2023/11/02 07:53:50;;;;;;;;;1.75;1.25;;;;;;;;5068074;28;45252;-79
2023/11/02 07:56:15;;;;;;;;;2.75;1.25;;;;;;;;5060148;28;45295;-81
2023/11/02 07:58:42;;;;;;;;;1.00;0.50;;;;;;;;5059475;28;45325;-79
2023/11/02 08:01:08;;;;;;;;;1.50;1.25;;;;;;;;5078589;28;45460;-79
2023/11/02 08:03:33;;;;;;;;;0.75;0.75;;;;;;;;5079317;28;45243;-79
2023/11/02 08:05:58;;;;;;;;;0.00;0.00;;;;;;;;5078951;27;45448;-79
2023/11/02 08:08:24;;;;;;;;;1.50;0.50;;;;;;;;5080186;28;45329;-79
2023/11/02 08:10:50;;;;;;;;;2.00;1.25;;;;;;;;5079526;27;45336;-79
2023/11/02 08:13:15;;;;;;;;;1.33;1.00;;;;;;;;5079388;28;46502;-78
2023/11/02 08:15:41;;;;;;;;;2.00;2.00;;;;;;;;5079367;27;45546;-79
2023/11/02 08:18:07;;;;;;;;;0.25;0.00;;;;;;;;5078975;28;45406;-79
2023/11/02 08:20:32;;;;;;;;;0.00;0.00;;;;;;;;5078806;27;45475;-79
2023/11/02 08:22:57;;;;;;;;;2.50;2.00;;;;;;;;5079351;28;45406;-80
2023/11/02 08:25:22;;;;;;;;;0.67;0.33;;;;;;;;5078600;28;45333;-79
2023/11/02 08:27:56;;;;;;;;;2.25;1.00;;;;;;;;5075527;27;45314;-78
2023/11/02 08:30:22;;;;;;;;;0.25;0.25;;;;;;;;5093513;27;45628;-78
2023/11/02 08:32:47;;;;;;;;;1.75;0.50;;;;;;;;5098638;27;45959;-79
2023/11/02 08:35:13;;;;;;;;;2.33;0.33;;;;;;;;5099331;27;45356;-77
2023/11/02 08:37:38;;;;;;;;;1.00;0.00;;;;;;;;5099226;27;45319;-79
2023/11/02 08:40:05;;;;;;;;;1.25;0.00;;;;;;;;5099493;27;45316;-79
2023/11/02 08:42:30;;;;;;;;;0.33;0.33;;;;;;;;5099924;27;45160;-81
2023/11/02 08:44:56;;;;;;;;;0.00;0.00;;;;;;;;5100138;27;45467;-80
2023/11/02 08:47:21;;;;;;;;;1.75;0.25;;;;;;;;5100201;27;45338;-79
2023/11/02 08:49:46;;;;;;;;;2.00;0.00;;;;;;;;5100431;27;45531;-80
2023/11/02 08:52:11;;;;;;;;;1.50;1.00;;;;;;;;5099375;27;45263;-80
2023/11/02 08:54:36;;;;;;;;;0.50;0.25;;;;;;;;5098595;27;45311;-80
2023/11/02 08:57:02;;;;;;;;;0.00;0.00;;;;;;;;5098964;27;45458;-79
2023/11/02 08:59:27;;;;;;;;;2.00;1.00;;;;;;;;5100453;27;45259;-79
2023/11/02 09:01:56;;;;;;;;;3.00;2.00;;;;;;;;5103377;27;45434;-80
2023/11/02 09:04:21;;;;;;;;;1.50;1.00;;;;;;;;5072597;27;45362;-79
2023/11/02 09:06:46;;;;;;;;;2.00;1.25;;;;;;;;5072723;28;45599;-80
2023/11/02 09:09:11;;;;;;;;;2.50;1.00;;;;;;;;5072561;27;45755;-79
2023/11/02 09:11:36;;;;;;;;;1.75;0.75;;;;;;;;5069067;28;45588;-79
2023/11/02 09:14:02;;;;;;;;;2.00;0.00;;;;;;;;5074489;28;45733;-80
2023/11/02 09:16:27;;;;;;;;;2.25;2.00;;;;;;;;5080727;28;45442;-79
2023/11/02 09:18:54;;;;;;;;;0.00;0.00;;;;;;;;5080655;28;45406;-79
2023/11/02 09:21:19;;;;;;;;;2.00;1.00;;;;;;;;5079694;28;46220;-79
2023/11/02 09:23:44;;;;;;;;;0.00;0.00;;;;;;;;5081573;28;45334;-79
2023/11/02 09:26:10;;;;;;;;;1.00;1.00;;;;;;;;5082655;28;45243;-81
2023/11/02 09:28:35;;;;;;;;;1.00;1.00;;;;;;;;5079651;27;46033;-79
2023/11/02 09:31:00;;;;;;;;;0.25;0.25;;;;;;;;5083801;27;45606;-79
2023/11/02 09:33:25;;;;;;;;;2.25;2.25;;;;;;;;5062232;28;45353;-76
2023/11/02 09:35:50;;;;;;;;;3.75;1.75;;;;;;;;5064046;28;45317;-78
2023/11/02 09:38:16;;;;;;;;;2.00;2.00;;;;;;;;5070762;28;45505;-79
2023/11/02 09:40:41;;;;;;;;;0.00;0.00;;;;;;;;5084064;28;45334;-75
2023/11/02 09:43:07;;;;;;;;;1.75;1.00;;;;;;;;5083340;28;45193;-77
2023/11/02 09:45:32;;;;;;;;;2.00;2.00;;;;;;;;5085075;28;45254;-78
2023/11/02 09:48:01;;;;;;;;;2.75;2.00;;;;;;;;5086917;28;45201;-79
2023/11/02 09:50:27;;;;;;;;;1.25;1.25;;;;;;;;5087967;28;46566;-81
2023/11/02 09:52:53;;;;;;;;;1.00;1.00;;;;;;;;5073909;28;45302;-77
2023/11/02 09:55:18;;;;;;;;;0.75;0.00;;;;;;;;5067365;28;45518;-79
2023/11/02 09:57:44;;;;;;;;;1.50;1.00;;;;;;;;5075091;28;45247;-78
2023/11/02 10:00:10;;;;;;;;;1.25;0.75;;;;;;;;5087772;28;45227;-76
2023/11/02 10:02:36;;;;;;;;;0.75;0.00;;;;;;;;5087335;28;45277;-75
2023/11/02 10:05:03;;;;;;;;;1.00;0.50;;;;;;;;5086050;28;45303;-77
2023/11/02 10:07:28;;;;;;;;;0.75;0.75;;;;;;;;5086721;28;45156;-77
2023/11/02 10:09:54;;;;;;;;;1.50;0.25;;;;;;;;5086386;28;45545;-77
2023/11/02 10:12:19;;;;;;;;;0.00;0.00;;;;;;;;5086002;28;45322;-77
2023/11/02 10:14:44;;;;;;;;;0.75;0.75;;;;;;;;5085054;28;45450;-77
2023/11/02 10:17:11;;;;;;;;;1.50;1.50;;;;;;;;5085631;28;45439;-79
2023/11/02 10:19:36;;;;;;;;;0.50;0.00;;;;;;;;5083098;28;45314;-76
2023/11/02 10:22:03;;;;;;;;;1.25;0.25;;;;;;;;5082211;28;45334;-76
2023/11/02 10:24:30;;;;;;;;;0.00;0.00;;;;;;;;5083801;28;45330;-78
2023/11/02 10:26:56;;;;;;;;;6.00;2.00;;;;;;;;5082897;28;45232;-77
2023/11/02 10:29:21;;;;;;;;;0.50;0.50;;;;;;;;5091269;27;45947;-77
2023/11/02 10:31:51;;;;;;;;;1.75;1.25;;;;;;;;5103753;27;45357;-76
2023/11/02 10:34:16;;;;;;;;;2.00;2.00;;;;;;;;5102057;27;45365;-77
2023/11/02 10:36:41;;;;;;;;;2.00;1.00;;;;;;;;5101032;27;45259;-75
2023/11/02 10:39:08;;;;;;;;;1.00;0.00;;;;;;;;5074397;27;45435;-76
2023/11/02 10:41:34;;;;;;;;;2.00;0.75;;;;;;;;5061483;28;45526;-80
2023/11/02 10:44:01;;;;;;;;;2.50;2.00;;;;;;;;5060646;28;45587;-79
2023/11/02 10:46:27;;;;;;;;;2.00;1.00;;;;;;;;5072818;28;45715;-78
2023/11/02 10:48:56;;;;;;;;;2.00;1.00;;;;;;;;5071143;28;45337;-78
2023/11/02 10:51:24;;;;;;;;;0.00;0.00;;;;;;;;5070062;28;45321;-78
2023/11/02 10:53:50;;;;;;;;;3.75;3.00;;;;;;;;5072522;28;45481;-77
2023/11/02 10:56:19;;;;;;;;;0.75;0.75;;;;;;;;5080541;28;45295;-78
2023/11/02 10:58:45;;;;;;;;;3.00;0.50;;;;;;;;5087215;27;46019;-77
2023/11/02 11:01:11;;;;;;;;;0.00;0.00;;;;;;;;5064665;28;46001;-76
2023/11/02 11:03:37;;;;;;;;;2.50;0.75;;;;;;;;5072205;27;45384;-75
2023/11/02 11:06:04;;;;;;;;;1.50;0.00;;;;;;;;5061593;28;45365;-76
2023/11/02 11:08:29;;;;;;;;;1.00;0.00;;;;;;;;5060193;28;45295;-75
2023/11/02 11:10:56;;;;;;;;;1.50;1.50;;;;;;;;5060137;28;45351;-76
2023/11/02 11:13:21;;;;;;;;;1.00;1.00;;;;;;;;5059714;28;45657;-75
2023/11/02 11:15:47;;;;;;;;;0.00;0.00;;;;;;;;5066709;28;45625;-79
2023/11/02 11:18:14;;;;;;;;;1.00;1.00;;;;;;;;5079526;28;45338;-79
2023/11/02 11:20:41;;;;;;;;;2.00;1.25;;;;;;;;5083629;28;45365;-78
2023/11/02 11:23:07;;;;;;;;;1.75;1.25;;;;;;;;5082177;28;45310;-80
2023/11/02 11:25:33;;;;;;;;;1.00;1.00;;;;;;;;5084198;28;45484;-80
2023/11/02 11:27:58;;;;;;;;;1.00;0.00;;;;;;;;5084304;28;46059;-78
2023/11/02 11:30:23;;;;;;;;;0.00;0.00;;;;;;;;5103295;27;45337;-79
2023/11/02 11:32:49;;;;;;;;;1.00;1.00;;;;;;;;5105854;27;45381;-78
2023/11/02 11:35:17;;;;;;;;;1.50;0.00;;;;;;;;5080722;27;45344;-79
2023/11/02 11:37:49;;;;;;;;;1.25;1.25;;;;;;;;5084617;28;45343;-80
2023/11/02 11:40:20;;;;;;;;;4.33;2.00;;;;;;;;5083701;28;45195;-80
2023/11/02 11:42:54;;;;;;;;;0.00;0.00;;;;;;;;5084804;28;45495;-77
2023/11/02 11:45:35;;;;;;;;;0.75;0.00;;;;;;;;5083150;28;45259;-79
2023/11/02 11:48:02;;;;;;;;;1.75;1.00;;;;;;;;5080455;28;45516;-76
2023/11/02 11:50:30;;;;;;;;;2.00;1.00;;;;;;;;5080927;28;45346;-77
2023/11/02 11:53:10;;;;;;;;;1.75;1.75;;;;;;;;5071522;28;45328;-76
2023/11/02 11:55:36;;;;;;;;;1.00;0.00;;;;;;;;5072483;28;45477;-75
2023/11/02 11:58:02;;;;;;;;;0.25;0.25;;;;;;;;5061591;28;48043;-75
2023/11/02 12:00:27;;;;;;;;;1.50;0.75;;;;;;;;5063948;28;45305;-76
2023/11/02 12:02:55;;;;;;;;;4.00;0.75;;;;;;;;5066539;28;45291;-75
2023/11/02 12:05:40;;;;;;;;;1.25;1.25;;;;;;;;5070133;28;45870;-76
2023/11/02 12:08:05;;;;;;;;;3.00;0.75;;;;;;;;5069850;28;46099;-76
2023/11/02 12:10:30;;;;;;;;;2.00;1.00;;;;;;;;5079228;28;45322;-77
2023/11/02 12:12:56;;;;;;;;;1.25;0.00;;;;;;;;5080768;28;45593;-77
2023/11/02 12:15:21;;;;;;;;;3.00;1.25;;;;;;;;5062168;28;45516;-77
2023/11/02 12:17:50;;;;;;;;;2.50;0.50;;;;;;;;5062496;28;46265;-76
2023/11/02 12:20:35;;;;;;;;;0.00;0.00;;;;;;;;5069141;28;45455;-76
2023/11/02 12:23:00;;;;;;;;;0.00;0.00;;;;;;;;5080104;28;45615;-76
2023/11/02 12:25:25;;;;;;;;;0.75;0.75;;;;;;;;5066651;28;45601;-75
2023/11/02 12:27:56;;;;;;;;;1.00;1.00;;;;;;;;5067158;28;45696;-77
2023/11/02 12:30:22;;;;;;;;;1.00;0.00;;;;;;;;5099990;27;45473;-78
2023/11/02 12:32:48;;;;;;;;;2.75;1.75;;;;;;;;5087863;27;45256;-77
2023/11/02 12:35:15;;;;;;;;;3.00;0.00;;;;;;;;5079539;27;45585;-77
2023/11/02 12:37:40;;;;;;;;;0.00;0.00;;;;;;;;5078863;27;46238;-77
2023/11/02 12:40:08;;;;;;;;;1.00;1.00;;;;;;;;5077283;28;45406;-76
2023/11/02 12:42:36;;;;;;;;;1.00;1.00;;;;;;;;5082026;27;45505;-78
2023/11/02 12:45:01;;;;;;;;;2.50;1.00;;;;;;;;5085232;28;45540;-78
2023/11/02 12:47:42;;;;;;;;;0.00;0.00;;;;;;;;5086972;27;45491;-75
2023/11/02 12:50:26;;;;;;;;;0.25;0.25;;;;;;;;5083270;28;45401;-76
2023/11/02 12:52:52;;;;;;;;;1.00;0.25;;;;;;;;5080091;27;45718;-76
2023/11/02 12:55:18;;;;;;;;;1.75;1.75;;;;;;;;5082766;28;45397;-77
2023/11/02 12:57:43;;;;;;;;;1.75;0.00;;;;;;;;5075839;27;45260;-75
2023/11/02 13:00:14;;;;;;;;;1.00;0.00;;;;;;;;5075821;28;45585;-76
2023/11/02 13:02:39;;;;;;;;;0.50;0.50;;;;;;;;5080203;28;45563;-76
2023/11/02 13:05:06;;;;;;;;;2.00;1.75;;;;;;;;5076046;28;45463;-76
2023/11/02 13:07:31;;;;;;;;;0.00;0.00;;;;;;;;5077661;28;45664;-77
2023/11/02 13:10:04;;;;;;;;;0.00;0.00;;;;;;;;5072484;28;45608;-79
2023/11/02 13:12:30;;;;;;;;;0.75;0.25;;;;;;;;5075618;27;45443;-78
2023/11/02 13:14:56;;;;;;;;;0.00;0.00;;;;;;;;5075280;28;45420;-77
2023/11/02 13:17:21;;;;;;;;;0.75;0.00;;;;;;;;5077713;27;45385;-78
2023/11/02 13:19:51;;;;;;;;;1.50;0.00;;;;;;;;5064738;28;45240;-76
2023/11/02 13:22:16;;;;;;;;;1.00;0.00;;;;;;;;5066763;27;45416;-75
2023/11/02 13:24:41;;;;;;;;;0.00;0.00;;;;;;;;5081272;28;45472;-75
2023/11/02 13:27:07;;;;;;;;;0.00;0.00;;;;;;;;5074949;28;45528;-77
2023/11/02 13:29:32;;;;;;;;;0.00;0.00;;;;;;;;5073096;27;44760;-75
2023/11/02 13:31:58;;;;;;;;;0.50;0.00;;;;;;;;5075887;28;45381;-77
2023/11/02 13:34:24;;;;;;;;;1.00;0.25;;;;;;;;5078274;28;45859;-76
2023/11/02 13:36:49;;;;;;;;;0.25;0.25;;;;;;;;5061832;28;46181;-75
2023/11/02 13:39:14;;;;;;;;;1.00;1.00;;;;;;;;5063566;28;45683;-77
2023/11/02 13:41:42;;;;;;;;;0.00;0.00;;;;;;;;5063208;28;45516;-78
2023/11/02 13:44:07;;;;;;;;;0.00;0.00;;;;;;;;5062540;28;45341;-74
2023/11/02 13:46:33;;;;;;;;;0.75;0.25;;;;;;;;5064463;28;46571;-75
2023/11/02 13:48:58;;;;;;;;;1.00;0.00;;;;;;;;5065121;28;45644;-78
2023/11/02 13:51:23;;;;;;;;;2.50;1.25;;;;;;;;5068132;28;45436;-76
2023/11/02 13:53:49;;;;;;;;;0.00;0.00;;;;;;;;5062846;28;45475;-75
2023/11/02 13:56:14;;;;;;;;;0.75;0.75;;;;;;;;5076143;28;46210;-77
2023/11/02 13:58:40;;;;;;;;;0.00;0.00;;;;;;;;5085304;28;45370;-77
2023/11/02 14:01:06;;;;;;;;;1.00;0.00;;;;;;;;5083850;28;45391;-78
2023/11/02 14:03:31;;;;;;;;;0.00;0.00;;;;;;;;5081255;28;45665;-79
2023/11/02 14:05:56;;;;;;;;;0.00;0.00;;;;;;;;5065222;28;45512;-76
2023/11/02 14:08:22;;;;;;;;;0.00;0.00;;;;;;;;5067610;28;45472;-77
2023/11/02 14:10:47;;;;;;;;;1.00;0.00;;;;;;;;5075452;28;45562;-75
2023/11/02 14:13:12;;;;;;;;;0.00;0.00;;;;;;;;5075995;28;45894;-78
2023/11/02 14:15:38;;;;;;;;;0.00;0.00;;;;;;;;5077416;28;45335;-78
2023/11/02 14:18:03;;;;;;;;;1.00;0.00;;;;;;;;5081173;28;45447;-77
2023/11/02 14:20:28;;;;;;;;;0.50;0.00;;;;;;;;5073817;28;45876;-78
2023/11/02 14:22:54;;;;;;;;;0.00;0.00;;;;;;;;5078071;28;45525;-77
2023/11/02 14:25:19;;;;;;;;;0.50;0.25;;;;;;;;5073118;28;46553;-76
2023/11/02 14:27:47;;;;;;;;;1.50;1.50;;;;;;;;5076426;28;45497;-81
2023/11/02 14:30:12;;;;;;;;;0.25;0.25;;;;;;;;5078688;27;45419;-80
2023/11/02 14:32:38;;;;;;;;;1.00;0.00;;;;;;;;5073958;28;45203;-79
2023/11/02 14:35:04;;;;;;;;;0.00;0.00;;;;;;;;5064661;28;46542;-76
2023/11/02 14:37:30;;;;;;;;;0.00;0.00;;;;;;;;5068786;28;45456;-78
2023/11/02 14:39:55;;;;;;;;;1.00;0.00;;;;;;;;5069712;28;45728;-77
2023/11/02 14:42:22;;;;;;;;;0.25;0.25;;;;;;;;5077047;28;45659;-75
2023/11/02 14:44:47;;;;;;;;;0.00;0.00;;;;;;;;5077307;28;46032;-75